X  Close Metar Aviation Weather Data     KGMU Greenville Downtown Airport
Temperature
84°F Temperature
64°F Dewpoint
51% Humidity



Wind
6 MPH
10 KM/H
3 M/S
5 KTS



Calm
N
Current Conditions

Mostly Cloudy Mostly Cloudy
Pressure 1012.53 (hPa) - 29.9 (inHg)
Visibility 10 (mile) - 16.1 (km)
Airport
Airport-code KGMU

Location: Greenville Downtown Airport
Distance: 7 (mi)

Metar:
KGMU 241953Z VRB05KT 10SM BKN049 BKN060 29/18 A2990 RMK AO2 SLP114 T02940183

Time: 05-24-2024 3:53 pm EDT